createdAt,value
2019-04-21T00:01:59.479Z,70.10
2019-04-21T00:04:50.731Z,70.40
2019-04-21T00:07:44.977Z,72.40
2019-04-21T00:10:29.713Z,71.80
2019-04-21T00:13:08.033Z,70.30
2019-04-21T00:15:48.877Z,69.70
2019-04-21T00:19:03.210Z,69.00
2019-04-21T00:22:08.559Z,68.70
2019-04-21T00:24:56.910Z,68.80
2019-04-21T00:27:58.872Z,68.80
2019-04-21T00:31:10.420Z,68.50
2019-04-21T00:33:42.692Z,68.20
2019-04-21T00:36:39.896Z,68.30
2019-04-21T00:39:45.037Z,68.10
2019-04-21T00:42:34.550Z,67.50
2019-04-21T00:45:31.393Z,66.90
2019-04-21T00:48:45.653Z,69.40
2019-04-21T00:51:33.429Z,67.90
2019-04-21T00:55:01.714Z,67.00
2019-04-21T00:57:43.085Z,67.60
2019-04-21T01:00:51.283Z,66.00
2019-04-21T01:07:15.424Z,66.60
2019-04-21T01:09:56.056Z,65.10
2019-04-21T01:12:41.800Z,65.50
2019-04-21T01:15:35.213Z,65.50
2019-04-21T01:18:09.090Z,64.80
2019-04-21T01:20:33.878Z,65.10
2019-04-21T01:23:16.751Z,64.60
2019-04-21T01:26:16.765Z,66.40
2019-04-21T01:29:01.638Z,67.50
2019-04-21T01:31:48.453Z,66.10
2019-04-21T01:34:33.185Z,64.00
2019-04-21T01:37:12.827Z,63.90
2019-04-21T01:40:04.723Z,64.10
2019-04-21T01:42:39.434Z,65.70
2019-04-21T01:45:26.580Z,65.70
2019-04-21T01:48:06.519Z,64.20
2019-04-21T01:50:49.685Z,62.80
2019-04-21T01:53:58.959Z,62.80
2019-04-21T01:57:01.817Z,62.60
2019-04-21T01:59:39.631Z,63.40
2019-04-21T02:02:32.585Z,62.40
2019-04-21T02:05:18.857Z,61.80
2019-04-21T02:08:01.081Z,60.40
2019-04-21T02:10:46.213Z,61.10
2019-04-21T02:13:24.673Z,60.30
2019-04-21T02:16:14.073Z,59.80
2019-04-21T02:18:52.624Z,59.80
2019-04-21T02:21:36.672Z,58.90
2019-04-21T02:24:35.143Z,59.00
2019-04-21T02:27:06.473Z,59.60
2019-04-21T02:29:55.201Z,59.30
2019-04-21T02:32:48.014Z,60.10
2019-04-21T02:38:23.673Z,59.90
2019-04-21T02:40:57.909Z,59.40
2019-04-21T02:46:46.650Z,58.30
2019-04-21T02:49:56.598Z,57.70
2019-04-21T02:52:53.910Z,58.00
2019-04-21T02:55:42.015Z,58.80
2019-04-21T03:04:57.306Z,56.40
2019-04-21T03:10:28.693Z,56.70
2019-04-21T03:13:14.043Z,55.60
2019-04-21T03:16:09.732Z,56.90
2019-04-21T03:18:54.238Z,57.10
2019-04-21T03:21:28.973Z,56.20
2019-04-21T03:24:49.083Z,56.60
2019-04-21T03:27:09.692Z,56.00
2019-04-21T03:29:44.747Z,54.40
2019-04-21T03:33:13.042Z,55.80
2019-04-21T03:35:43.831Z,55.10
2019-04-21T03:40:50.670Z,56.10
2019-04-21T03:46:23.115Z,55.40
2019-04-21T03:49:10.630Z,58.00
2019-04-21T03:51:48.721Z,55.20
2019-04-21T03:59:11.576Z,52.80
2019-04-21T04:02:38.812Z,52.70
2019-04-21T04:06:03.941Z,52.40
2019-04-21T04:09:19.446Z,52.90
2019-04-21T04:18:46.608Z,50.80
2019-04-21T04:21:28.735Z,50.20
2019-04-21T04:24:08.865Z,50.50
2019-04-21T04:29:42.312Z,50.60
2019-04-21T04:32:23.454Z,49.90
2019-04-21T04:38:27.697Z,49.90
2019-04-21T04:41:28.897Z,51.00
2019-04-21T04:44:26.589Z,49.80
2019-04-21T04:52:37.884Z,50.50
2019-04-21T04:55:26.323Z,49.70
2019-04-21T04:58:25.087Z,49.30
2019-04-21T05:01:06.186Z,49.80
2019-04-21T05:03:49.480Z,49.90
2019-04-21T05:06:42.491Z,49.30
2019-04-21T05:09:14.794Z,49.80
2019-04-21T05:11:55.990Z,51.00
2019-04-21T05:14:46.186Z,49.00
2019-04-21T05:20:11.159Z,48.60
2019-04-21T05:22:51.851Z,47.90
2019-04-21T05:25:30.722Z,47.40
2019-04-21T05:28:12.692Z,47.50
2019-04-21T05:31:19.510Z,47.10
2019-04-21T05:34:17.964Z,48.00
2019-04-21T05:37:24.503Z,47.90
2019-04-21T05:40:18.332Z,46.80
2019-04-21T05:43:20.203Z,47.10
2019-04-21T05:46:18.434Z,47.30
2019-04-21T05:49:06.818Z,47.00
2019-04-21T05:52:05.449Z,47.00
2019-04-21T05:57:46.697Z,46.90
2019-04-21T06:00:46.622Z,46.70
2019-04-21T06:03:28.254Z,47.00
2019-04-21T06:06:13.582Z,45.90
2019-04-21T06:11:55.539Z,46.60
2019-04-21T06:14:52.087Z,46.00
2019-04-21T06:20:15.388Z,45.10
2019-04-21T06:22:56.831Z,45.40
2019-04-21T06:25:48.652Z,45.00
2019-04-21T06:28:41.682Z,45.50
2019-04-21T06:34:11.378Z,45.10
2019-04-21T06:37:18.271Z,45.50
2019-04-21T06:40:01.894Z,45.00
2019-04-21T06:42:32.489Z,44.80
2019-04-21T06:45:36.669Z,44.80
2019-04-21T06:51:27.593Z,44.20
2019-04-21T06:54:34.184Z,43.30
2019-04-21T06:57:25.440Z,44.60
2019-04-21T07:00:06.355Z,44.00
2019-04-21T07:02:52.142Z,43.80
2019-04-21T07:08:34.467Z,45.10
2019-04-21T07:11:21.659Z,43.90
2019-04-21T07:14:27.312Z,43.30
2019-04-21T07:22:45.985Z,43.50
2019-04-21T07:25:29.632Z,43.30
2019-04-21T07:28:20.947Z,44.30
2019-04-21T07:31:07.941Z,43.30
2019-04-21T07:33:53.781Z,42.10
2019-04-21T07:36:35.452Z,42.20
2019-04-21T07:39:00.189Z,42.20
2019-04-21T07:41:36.704Z,43.00
2019-04-21T07:44:25.765Z,42.10
2019-04-21T07:47:50.718Z,41.50
2019-04-21T07:51:38.995Z,42.30
2019-04-21T07:54:19.997Z,40.90
2019-04-21T07:56:41.894Z,41.10
2019-04-21T08:00:07.113Z,41.00
2019-04-21T08:02:40.739Z,40.90
2019-04-21T08:05:28.037Z,40.50
2019-04-21T08:08:15.933Z,40.70
2019-04-21T08:11:06.905Z,40.70
2019-04-21T08:13:55.104Z,40.50
2019-04-21T08:16:53.408Z,41.20
2019-04-21T08:19:32.469Z,40.60
2019-04-21T08:22:48.150Z,40.70
2019-04-21T08:25:54.873Z,40.20
2019-04-21T08:28:27.582Z,39.70
2019-04-21T08:31:32.659Z,39.80
2019-04-21T08:34:13.893Z,40.30
2019-04-21T08:37:05.483Z,40.20
2019-04-21T08:40:02.073Z,39.90
2019-04-21T08:42:55.107Z,40.10
2019-04-21T08:45:49.390Z,39.50
2019-04-21T08:48:52.637Z,39.20
2019-04-21T08:51:43.718Z,38.80
2019-04-21T08:54:38.663Z,39.00
2019-04-21T08:57:48.863Z,39.50
2019-04-21T09:00:58.985Z,39.60
2019-04-21T09:04:26.231Z,39.40
2019-04-21T09:07:21.336Z,39.30
2019-04-21T09:09:57.420Z,40.40
2019-04-21T09:12:40.466Z,39.40
2019-04-21T09:15:31.325Z,39.20
2019-04-21T09:18:10.191Z,39.70
2019-04-21T09:21:04.620Z,39.90
2019-04-21T09:24:26.638Z,40.50
2019-04-21T09:27:14.279Z,40.00
2019-04-21T09:29:47.916Z,39.90
2019-04-21T09:32:34.864Z,39.50
2019-04-21T09:35:18.358Z,39.60
2019-04-21T09:38:18.458Z,39.50
2019-04-21T09:40:56.097Z,39.40
2019-04-21T09:43:43.614Z,40.40
2019-04-21T09:46:20.879Z,40.50
2019-04-21T09:49:05.821Z,40.80
2019-04-21T09:52:00.473Z,41.00
2019-04-21T09:54:56.442Z,40.50
2019-04-21T09:57:47.998Z,39.60
2019-04-21T10:00:27.261Z,39.70
2019-04-21T10:03:11.668Z,40.00
2019-04-21T10:05:51.864Z,40.00
2019-04-21T10:08:32.331Z,40.50
2019-04-21T10:11:16.353Z,41.40
2019-04-21T10:14:07.473Z,41.40
2019-04-21T10:17:13.054Z,42.20
2019-04-21T10:19:55.089Z,42.40
2019-04-21T10:22:41.373Z,41.60
2019-04-21T10:25:22.909Z,41.70
2019-04-21T10:28:01.437Z,41.40
2019-04-21T10:30:43.104Z,41.60
2019-04-21T10:33:22.298Z,41.10
2019-04-21T10:36:35.114Z,41.50
2019-04-21T10:39:24.026Z,42.00
2019-04-21T10:42:19.513Z,42.20
2019-04-21T10:45:07.643Z,43.70
2019-04-21T10:47:47.217Z,42.70
2019-04-21T10:50:32.939Z,43.00
2019-04-21T10:53:36.809Z,42.80
2019-04-21T10:56:30.711Z,43.40
2019-04-21T10:59:20.460Z,43.90
2019-04-21T11:05:14.455Z,44.30
2019-04-21T11:08:10.007Z,43.50
2019-04-21T11:13:56.806Z,43.60
2019-04-21T11:17:14.260Z,44.70
2019-04-21T11:20:51.164Z,44.40
2019-04-21T11:23:38.932Z,45.70
2019-04-21T11:26:37.973Z,44.60
2019-04-21T11:29:21.242Z,44.40
2019-04-21T11:32:05.296Z,44.50
2019-04-21T11:34:46.954Z,44.90
2019-04-21T11:37:38.154Z,44.50
2019-04-21T11:40:42.215Z,44.20
2019-04-21T11:43:28.826Z,44.80
2019-04-21T11:46:42.484Z,44.60
2019-04-21T11:49:34.840Z,44.70
2019-04-21T11:52:31.238Z,44.90
2019-04-21T11:55:20.587Z,45.60
2019-04-21T11:59:09.986Z,46.20
2019-04-21T12:02:17.308Z,46.30
2019-04-21T12:04:48.063Z,46.80
2019-04-21T12:07:47.551Z,46.90
2019-04-21T12:10:39.725Z,47.80
2019-04-21T12:13:28.080Z,47.60
2019-04-21T12:19:27.899Z,47.10
2019-04-21T12:22:25.345Z,48.50
2019-04-21T12:25:07.152Z,48.20
2019-04-21T12:27:56.104Z,47.90
2019-04-21T12:31:45.499Z,47.90
2019-04-21T12:34:37.438Z,47.90
2019-04-21T12:37:28.933Z,48.50
2019-04-21T12:40:10.822Z,48.30
2019-04-21T12:42:56.808Z,49.20
2019-04-21T12:49:29.715Z,49.50
2019-04-21T12:55:48.006Z,49.60
2019-04-21T13:22:44.321Z,50.30
2019-04-21T13:29:06.344Z,50.60
2019-04-21T13:32:45.365Z,50.40
2019-04-21T13:37:35.210Z,50.00
2019-04-21T13:38:32.345Z,50.30
2019-04-21T13:45:02.457Z,51.90
2019-04-21T14:18:10.939Z,51.40
2019-04-21T14:58:35.039Z,51.90
2019-04-21T15:01:49.553Z,51.80
2019-04-21T15:04:57.662Z,51.70
2019-04-21T15:34:45.129Z,52.00
2019-04-21T15:48:55.181Z,52.10
2019-04-21T15:52:31.787Z,52.10
2019-04-21T15:55:50.804Z,52.30
2019-04-21T15:59:14.605Z,52.70
2019-04-21T16:02:36.760Z,52.70
2019-04-21T16:05:30.749Z,52.70
2019-04-21T16:08:52.511Z,52.90
2019-04-21T16:11:46.938Z,53.00
2019-04-21T16:15:16.552Z,52.80
2019-04-21T16:18:45.817Z,53.00
2019-04-21T16:22:26.470Z,53.20
2019-04-21T16:25:10.638Z,53.50
2019-04-21T16:28:01.421Z,53.90
2019-04-21T16:30:42.546Z,54.00
2019-04-21T16:33:25.139Z,54.30
2019-04-21T16:36:09.600Z,54.20
2019-04-21T16:38:53.615Z,54.00
2019-04-21T16:41:40.283Z,53.90
2019-04-21T16:44:21.024Z,53.70
2019-04-21T16:47:07.636Z,53.40
2019-04-21T16:49:49.870Z,53.50
2019-04-21T16:52:38.385Z,53.60
2019-04-21T16:55:28.800Z,53.90
2019-04-21T16:58:38.785Z,54.10
2019-04-21T17:01:27.645Z,54.10
2019-04-21T17:04:08.649Z,54.00
2019-04-21T17:06:53.223Z,54.50
2019-04-21T17:09:32.954Z,54.20
2019-04-21T17:12:24.054Z,54.30
2019-04-21T17:15:21.122Z,54.40
2019-04-21T17:18:22.823Z,54.60
2019-04-21T17:20:58.935Z,54.70
2019-04-21T17:23:40.716Z,54.90
2019-04-21T17:26:39.419Z,54.90
2019-04-21T17:29:18.647Z,54.90
2019-04-21T17:32:07.429Z,54.50
2019-04-21T17:35:12.264Z,54.20
2019-04-21T17:38:00.249Z,54.40
2019-04-21T17:40:49.807Z,54.80
2019-04-21T17:43:49.804Z,54.70
2019-04-21T17:46:45.608Z,54.60
2019-04-21T17:49:23.622Z,54.50
2019-04-21T17:52:23.100Z,54.00
2019-04-21T17:55:19.770Z,53.80
2019-04-21T17:58:21.719Z,53.80
2019-04-21T18:03:58.845Z,53.40
2019-04-21T18:06:35.213Z,53.50
2019-04-21T18:09:24.532Z,53.60
2019-04-21T18:12:01.963Z,53.50
2019-04-21T18:14:24.300Z,53.50
2019-04-21T18:17:06.843Z,53.70
2019-04-21T18:19:57.117Z,53.40
2019-04-21T18:22:58.379Z,53.60
2019-04-21T18:25:47.434Z,53.30
2019-04-21T18:28:22.910Z,53.30
2019-04-21T18:31:10.178Z,53.50
2019-04-21T18:34:06.116Z,53.60
2019-04-21T18:36:50.241Z,53.70
2019-04-21T18:39:57.404Z,54.10
2019-04-21T18:42:52.958Z,54.40
2019-04-21T18:46:08.831Z,54.60
2019-04-21T18:48:43.952Z,54.80
2019-04-21T18:51:43.489Z,54.80
2019-04-21T18:54:41.397Z,54.80
2019-04-21T18:57:17.229Z,55.10
2019-04-21T18:59:51.324Z,55.20
2019-04-21T19:02:36.742Z,55.30
2019-04-21T19:05:15.525Z,55.50
2019-04-21T19:08:10.273Z,55.70
2019-04-21T19:10:56.434Z,55.80
2019-04-21T19:14:15.381Z,56.00
2019-04-21T19:16:50.965Z,56.00
2019-04-21T19:19:41.444Z,55.50
2019-04-21T19:22:19.833Z,55.40
2019-04-21T19:24:56.619Z,55.60
2019-04-21T19:27:31.132Z,55.80
2019-04-21T19:33:00.786Z,56.20
2019-04-21T19:35:19.442Z,56.20
2019-04-21T19:38:08.236Z,56.30
2019-04-21T19:40:59.258Z,56.20
2019-04-21T19:43:45.911Z,56.30
2019-04-21T19:46:23.675Z,56.00
2019-04-21T19:49:10.689Z,55.90
2019-04-21T19:51:46.241Z,55.70
2019-04-21T19:54:27.721Z,56.20
2019-04-21T19:57:02.884Z,56.20
2019-04-21T19:59:52.056Z,56.50
2019-04-21T20:02:32.277Z,56.60
2019-04-21T20:05:20.463Z,56.90
2019-04-21T20:08:11.344Z,56.80
2019-04-21T20:10:55.599Z,56.80
2019-04-21T20:13:48.754Z,56.40
2019-04-21T20:16:18.982Z,56.40
2019-04-21T20:18:51.177Z,56.70
2019-04-21T20:21:31.345Z,56.80
2019-04-21T20:24:15.052Z,56.90
2019-04-21T20:27:00.072Z,57.10
2019-04-21T20:29:48.795Z,57.40
2019-04-21T20:32:30.536Z,57.40
2019-04-21T20:35:25.121Z,57.40
2019-04-21T20:38:04.675Z,57.60
2019-04-21T20:40:41.301Z,57.60
2019-04-21T20:43:38.666Z,58.20
2019-04-21T20:46:17.179Z,57.80
2019-04-21T20:49:00.167Z,58.00
2019-04-21T20:51:42.516Z,58.00
2019-04-21T20:54:26.006Z,58.10
2019-04-21T20:57:12.603Z,58.20
2019-04-21T20:59:43.939Z,58.30
2019-04-21T21:02:37.172Z,58.40
2019-04-21T21:05:05.290Z,58.50
2019-04-21T21:07:57.027Z,58.70
2019-04-21T21:10:35.741Z,58.70
2019-04-21T21:13:20.449Z,58.80
2019-04-21T21:16:10.796Z,58.90
2019-04-21T21:21:28.131Z,58.90
2019-04-21T21:24:08.709Z,59.00
2019-04-21T21:26:54.953Z,58.90
2019-04-21T21:29:45.154Z,58.90
2019-04-21T21:35:00.893Z,59.00
2019-04-21T21:37:43.958Z,58.40
2019-04-21T21:40:26.768Z,58.30
2019-04-21T21:42:51.246Z,58.60
2019-04-21T21:45:37.694Z,58.80
2019-04-21T21:48:28.878Z,59.10
2019-04-21T21:51:04.224Z,59.20
2019-04-21T21:53:38.174Z,59.20
2019-04-21T21:56:14.641Z,59.20
2019-04-21T21:58:55.247Z,59.50
2019-04-21T22:01:45.510Z,59.40
2019-04-21T22:04:26.357Z,59.10
2019-04-21T22:07:07.247Z,58.90
2019-04-21T22:09:46.285Z,59.20
2019-04-21T22:12:25.852Z,59.40
2019-04-21T22:15:10.867Z,59.50
2019-04-21T22:18:07.525Z,59.80
2019-04-21T22:20:47.501Z,59.80
2019-04-21T22:23:34.014Z,60.00
2019-04-21T22:26:05.364Z,59.80
2019-04-21T22:28:45.590Z,59.70
2019-04-21T22:31:31.555Z,59.90
2019-04-21T22:34:14.099Z,60.00
2019-04-21T22:37:12.488Z,60.30
2019-04-21T22:39:53.110Z,60.50
2019-04-21T22:42:33.212Z,60.80
2019-04-21T22:45:37.578Z,61.00
2019-04-21T22:48:23.611Z,61.20
2019-04-21T22:51:19.173Z,61.30
2019-04-21T22:53:55.772Z,61.20
2019-04-21T22:56:50.412Z,61.30
2019-04-21T22:59:22.904Z,61.80
2019-04-21T23:02:13.684Z,61.90
2019-04-21T23:04:54.953Z,62.10
2019-04-21T23:07:41.430Z,62.90
2019-04-21T23:10:25.310Z,63.30
2019-04-21T23:13:13.382Z,63.10
2019-04-21T23:15:57.275Z,61.90
2019-04-21T23:18:46.403Z,62.50
2019-04-21T23:21:30.455Z,62.80
2019-04-21T23:24:26.218Z,63.10
2019-04-21T23:26:56.166Z,63.20
2019-04-21T23:29:52.645Z,62.60
2019-04-21T23:32:24.123Z,61.40
2019-04-21T23:35:06.187Z,61.20
2019-04-21T23:37:44.607Z,61.20
2019-04-21T23:40:23.300Z,61.40
2019-04-21T23:43:09.653Z,61.60
2019-04-21T23:45:48.714Z,61.60
2019-04-21T23:48:40.507Z,61.60
2019-04-21T23:51:21.632Z,61.70
2019-04-21T23:53:57.414Z,61.20
2019-04-21T23:56:40.896Z,61.00
2019-04-21T23:59:20.601Z,62.50
